Decoded Metar for VMMC (MACAU in MACAU) (IATA:MFM) | Meteo·Mobile Aviation Weather
aviador You're here:

VMMC Decoded Metar

MACAU in MACAU
Report Time2019-02-19 12:00:00
UTC Time2019-02-19 12:29:28
Flight Rules vfr VFR
Wind110° at 06 kt
W.Decomp.*RWY 16: 3.9 kt HW 4.5 kt LCW
W.Rank110° ranks 5
Current wind is below 110° avg. (9.1)
Visibility9999 m
Phenomena:N/A
Clouds:Few 012 Hf
Scattered 030 Hf
Expected CloudBase > 400 ft AGL from Temp-Dew spread
CeilingNone
Temp21°C (ISA +6)
Dew Point20°C (94% RH)
QNH1017 hPa
Density Alt899 ft
Elevation20 ft
Report Wrong Elevation
Raw Report
VMMC 191200Z 11006KT 080V180 9999 FEW012 SCT030 21/20 Q1017
NOSIG=

Extra information for VMMC:More info

Metar Taf Metar & Taf Last 4 Metars F.Rules Stats Wind Profile Meteogram Temp Stats Airport Information Weather charts Add Link Nearby VenuesMetar ALERT Operation Metar Decoded Social comments